Terminal Aerodrome Forecast
Issued by NWS Springfield, MO

Home | Current Version | Previous Version | Text Only | Print | Product List | Glossary On
Versions: 1 2 3 4 5 6 7 8 9 10 11 12 13 14 15 16 17 18 19 20 21 22 23 24 25 26 27 28 29 30 31 32 33 34
180
FTUS43 KSGF 271720
TAFSGF
TAF
KSGF 271720Z 2718/2818 31009KT P6SM OVC007
     FM280300 34006KT P6SM BKN008
     FM280800 35006KT P6SM BKN003
     FM281400 06005KT P6SM BKN003
     FM281700 09006KT P6SM BKN010=

USA.gov is the U.S. government's official web portal to all federal, state and local government web resources and services.